createdAt,value
2022-10-02T00:03:02.695Z,12.4
2022-10-02T00:13:03.321Z,12.5
2022-10-02T00:23:04.090Z,12.4
2022-10-02T00:33:04.214Z,12.4
2022-10-02T00:43:04.436Z,12.3
2022-10-02T00:53:04.592Z,12.3
2022-10-02T01:03:05.135Z,12.3
2022-10-02T01:13:05.425Z,12.3
2022-10-02T01:23:06.129Z,12.4
2022-10-02T01:33:06.848Z,12.5
2022-10-02T01:43:07.684Z,12.5
2022-10-02T01:53:08.710Z,12.6
2022-10-02T02:03:09.521Z,12.5
2022-10-02T02:13:09.699Z,12.7
2022-10-02T02:23:10.088Z,12.7
2022-10-02T02:33:10.143Z,12.7
2022-10-02T02:43:10.560Z,12.9
2022-10-02T02:53:11.008Z,12.9
2022-10-02T03:03:11.332Z,13
2022-10-02T03:13:12.373Z,13.1
2022-10-02T03:23:12.678Z,13.1
2022-10-02T03:33:13.638Z,13.1
2022-10-02T03:43:13.916Z,13
2022-10-02T03:53:14.013Z,13
2022-10-02T04:03:15.164Z,13.1
2022-10-02T04:13:15.442Z,13.2
2022-10-02T04:23:15.794Z,13.3
2022-10-02T04:33:15.931Z,13.3
2022-10-02T04:43:16.184Z,13.3
2022-10-02T04:53:16.216Z,13.2
2022-10-02T05:03:17.124Z,13.2
2022-10-02T05:13:18.154Z,13.1
2022-10-02T05:23:18.954Z,13.1
2022-10-02T05:33:19.165Z,13
2022-10-02T05:43:19.272Z,13
2022-10-02T05:53:19.884Z,13
2022-10-02T06:03:19.944Z,13
2022-10-02T06:13:20.030Z,13.1
2022-10-02T06:33:20.835Z,13.3
2022-10-02T06:43:21.073Z,13.4
2022-10-02T06:53:21.485Z,13.5
2022-10-02T07:13:23.179Z,13.6
2022-10-02T07:23:23.316Z,13.7
2022-10-02T07:33:26.544Z,13.8
2022-10-02T07:43:23.925Z,13.9
2022-10-02T07:53:24.622Z,14
2022-10-02T08:03:25.013Z,14.2
2022-10-02T08:13:25.112Z,14.4
2022-10-02T08:33:26.135Z,15.1
2022-10-02T08:33:31.441Z,15.1
2022-10-02T08:43:31.838Z,15.4
2022-10-02T08:53:32.260Z,15.6
2022-10-02T09:03:32.963Z,15.5
2022-10-02T09:13:33.392Z,15.5
2022-10-02T09:23:33.608Z,15.3
2022-10-02T09:33:34.269Z,15.3
2022-10-02T09:43:34.692Z,15.5
2022-10-02T09:53:35.135Z,15.7
2022-10-02T10:03:35.635Z,15.9
2022-10-02T10:23:36.475Z,16
2022-10-02T10:43:38.244Z,16.2
2022-10-02T10:53:38.416Z,16.8
2022-10-02T11:03:38.953Z,16.5
2022-10-02T11:13:39.430Z,16.7
2022-10-02T11:23:39.845Z,16
2022-10-02T11:33:40.672Z,17
2022-10-02T11:43:44.017Z,17.7
2022-10-02T13:23:45.826Z,17.5
2022-10-02T13:33:46.162Z,17.6
2022-10-02T13:43:46.984Z,17.4
2022-10-02T14:03:54.743Z,17.3
2022-10-02T14:13:48.640Z,16.9
2022-10-02T14:24:02.958Z,16.1
2022-10-02T14:33:56.280Z,15.1
2022-10-02T14:44:03.713Z,14.8
2022-10-02T14:53:57.652Z,14.7
2022-10-02T15:03:58.671Z,14.7
2022-10-02T15:13:52.524Z,14.7
2022-10-02T15:23:52.853Z,14.8
2022-10-02T15:33:52.954Z,15
2022-10-02T15:44:00.856Z,15.2
2022-10-02T15:53:54.504Z,15.3
2022-10-02T16:03:54.732Z,15.3
2022-10-02T16:13:54.777Z,15.2
2022-10-02T16:44:10.418Z,14.5
2022-10-02T16:53:56.907Z,14.4
2022-10-02T17:04:04.138Z,14.2
2022-10-02T17:13:58.158Z,13.9
2022-10-02T17:24:05.943Z,13.7
2022-10-02T17:43:59.852Z,13
2022-10-02T17:54:00.451Z,12.8
2022-10-02T18:04:00.757Z,12.6
2022-10-02T18:14:01.638Z,12.4
2022-10-02T18:24:02.450Z,12.3
2022-10-02T18:44:03.666Z,11.9
2022-10-02T18:54:04.113Z,11.6
2022-10-02T19:14:05.569Z,11.2
2022-10-02T19:24:05.923Z,10.9
2022-10-02T19:54:07.702Z,10.5
2022-10-02T20:04:08.723Z,10.4
2022-10-02T20:14:09.067Z,10.3
2022-10-02T20:34:10.591Z,10.1
2022-10-02T20:44:10.764Z,10.1
2022-10-02T20:54:11.229Z,10
2022-10-02T21:04:11.959Z,9.8
2022-10-02T21:14:12.996Z,9.8
2022-10-02T21:24:13.024Z,9.7
2022-10-02T21:34:13.539Z,9.8
2022-10-02T21:44:13.867Z,9.7
2022-10-02T21:54:14.846Z,9.8
2022-10-02T22:04:15.389Z,9.7
2022-10-02T22:14:23.214Z,9.6
2022-10-02T22:24:16.955Z,9.5
2022-10-02T22:34:20.297Z,9.4
2022-10-02T22:44:17.747Z,9.3
2022-10-02T22:54:18.712Z,9.4
2022-10-02T23:04:19.500Z,9.3
2022-10-02T23:14:20.112Z,9.3
2022-10-02T23:34:21.138Z,9.2
2022-10-02T23:44:21.425Z,9.1
2022-10-02T23:54:21.654Z,9.1
